createdAt,value
2019-03-11T00:00:16.481Z,22.37
2019-03-11T00:01:16.460Z,22.44
2019-03-11T00:02:16.555Z,22.38
2019-03-11T00:03:16.471Z,22.38
2019-03-11T00:04:17.390Z,22.37
2019-03-11T00:05:16.417Z,22.40
2019-03-11T00:06:16.415Z,22.41
2019-03-11T00:07:16.398Z,22.41
2019-03-11T00:08:16.583Z,22.34
2019-03-11T00:09:16.374Z,22.34
2019-03-11T00:10:16.364Z,22.37
2019-03-11T00:11:16.369Z,22.37
2019-03-11T00:12:16.346Z,22.37
2019-03-11T00:13:16.335Z,22.33
2019-03-11T00:14:16.453Z,22.37
2019-03-11T00:15:16.312Z,22.33
2019-03-11T00:16:16.301Z,22.37
2019-03-11T00:17:16.288Z,22.31
2019-03-11T00:18:16.300Z,22.30
2019-03-11T00:19:16.275Z,22.30
2019-03-11T00:20:16.379Z,22.33
2019-03-11T00:21:16.255Z,22.30
2019-03-11T00:22:16.235Z,22.33
2019-03-11T00:23:16.228Z,22.25
2019-03-11T00:24:16.233Z,22.26
2019-03-11T00:25:16.205Z,22.21
2019-03-11T00:26:16.374Z,22.28
2019-03-11T00:27:16.182Z,22.23
2019-03-11T00:28:16.171Z,22.25
2019-03-11T00:29:16.168Z,22.28
2019-03-11T00:30:16.158Z,22.21
2019-03-11T00:31:16.149Z,22.26
2019-03-11T00:32:16.234Z,22.23
2019-03-11T00:33:16.117Z,22.31
2019-03-11T00:34:16.105Z,22.26
2019-03-11T00:35:16.102Z,22.18
2019-03-11T00:36:16.090Z,22.30
2019-03-11T00:37:16.078Z,22.22
2019-03-11T00:38:16.158Z,22.25
2019-03-11T00:39:16.057Z,22.30
2019-03-11T00:40:16.044Z,22.22
2019-03-11T00:41:16.035Z,22.18
2019-03-11T00:42:16.022Z,22.23
2019-03-11T00:43:16.011Z,22.28
2019-03-11T00:44:16.133Z,22.28
2019-03-11T00:45:15.995Z,22.22
2019-03-11T00:46:15.988Z,22.21
2019-03-11T00:47:15.973Z,22.21
2019-03-11T00:48:15.957Z,22.19
2019-03-11T00:49:15.964Z,22.19
2019-03-11T00:50:16.045Z,22.22
2019-03-11T00:51:15.965Z,22.15
2019-03-11T00:52:15.916Z,22.16
2019-03-11T00:53:15.903Z,22.22
2019-03-11T00:54:15.899Z,22.22
2019-03-11T00:55:15.919Z,22.18
2019-03-11T00:56:15.999Z,22.12
2019-03-11T00:57:15.862Z,22.14
2019-03-11T00:58:15.856Z,22.10
2019-03-11T00:59:15.840Z,22.06
2019-03-11T01:00:15.828Z,22.10
2019-03-11T01:01:15.818Z,22.08
2019-03-11T01:02:15.933Z,22.07
2019-03-11T01:03:15.807Z,22.15
2019-03-11T01:04:15.785Z,22.15
2019-03-11T01:05:15.776Z,22.14
2019-03-11T01:06:15.765Z,22.14
2019-03-11T01:07:15.755Z,22.12
2019-03-11T01:08:15.861Z,22.14
2019-03-11T01:09:15.732Z,22.15
2019-03-11T01:10:15.723Z,22.18
2019-03-11T01:11:15.716Z,22.07
2019-03-11T01:12:15.725Z,22.12
2019-03-11T01:13:15.691Z,22.12
2019-03-11T01:14:15.786Z,22.16
2019-03-11T01:15:16.337Z,22.08
2019-03-11T01:16:15.662Z,22.08
2019-03-11T01:17:15.658Z,22.10
2019-03-11T01:18:15.636Z,22.10
2019-03-11T01:19:15.628Z,22.08
2019-03-11T01:20:15.945Z,22.10
2019-03-11T01:21:15.625Z,22.14
2019-03-11T01:22:15.601Z,22.08
2019-03-11T01:23:15.587Z,22.04
2019-03-11T01:24:15.574Z,22.14
2019-03-11T01:25:15.562Z,22.03
2019-03-11T01:26:15.666Z,22.03
2019-03-11T01:27:15.543Z,22.03
2019-03-11T01:28:15.532Z,22.10
2019-03-11T01:29:15.534Z,22.06
2019-03-11T01:30:15.520Z,21.96
2019-03-11T01:31:15.497Z,22.07
2019-03-11T01:32:15.606Z,22.03
2019-03-11T01:33:15.476Z,21.97
2019-03-11T01:34:15.467Z,22.03
2019-03-11T01:35:15.453Z,22.01
2019-03-11T01:36:15.443Z,22.01
2019-03-11T01:37:15.436Z,22.03
2019-03-11T01:38:15.628Z,21.99
2019-03-11T01:39:15.413Z,21.99
2019-03-11T01:40:15.399Z,22.00
2019-03-11T01:41:15.395Z,22.04
2019-03-11T01:42:15.385Z,22.03
2019-03-11T01:43:15.386Z,22.07
2019-03-11T01:44:15.527Z,22.00
2019-03-11T01:45:15.347Z,22.00
2019-03-11T01:46:15.345Z,22.01
2019-03-11T01:47:15.335Z,22.04
2019-03-11T01:48:15.325Z,21.92
2019-03-11T01:49:15.309Z,22.01
2019-03-11T01:50:15.395Z,22.03
2019-03-11T01:51:15.281Z,21.96
2019-03-11T01:52:15.273Z,21.97
2019-03-11T01:53:15.261Z,21.99
2019-03-11T01:54:15.271Z,22.00
2019-03-11T01:55:15.239Z,21.96
2019-03-11T01:56:15.450Z,21.96
2019-03-11T01:57:15.235Z,22.03
2019-03-11T01:58:15.207Z,21.96
2019-03-11T01:59:15.200Z,22.00
2019-03-11T02:00:15.186Z,21.94
2019-03-11T02:01:15.175Z,21.94
2019-03-11T02:02:15.298Z,21.96
2019-03-11T02:03:15.155Z,21.94
2019-03-11T02:04:15.145Z,21.84
2019-03-11T02:05:15.140Z,21.99
2019-03-11T02:06:15.121Z,21.94
2019-03-11T02:07:15.115Z,21.94
2019-03-11T02:08:15.208Z,21.97
2019-03-11T02:09:15.096Z,21.91
2019-03-11T02:10:15.083Z,21.88
2019-03-11T02:11:15.071Z,21.92
2019-03-11T02:12:15.060Z,21.94
2019-03-11T02:13:15.057Z,21.97
2019-03-11T02:14:15.165Z,21.97
2019-03-11T02:15:15.031Z,21.85
2019-03-11T02:16:15.014Z,21.81
2019-03-11T02:17:15.007Z,21.91
2019-03-11T02:18:15.018Z,21.91
2019-03-11T02:19:14.993Z,21.89
2019-03-11T02:20:15.253Z,21.91
2019-03-11T02:21:14.962Z,21.84
2019-03-11T02:22:14.951Z,21.88
2019-03-11T02:23:14.939Z,21.88
2019-03-11T02:24:14.932Z,21.88
2019-03-11T02:25:14.919Z,21.97
2019-03-11T02:26:15.013Z,21.83
2019-03-11T02:27:14.898Z,21.94
2019-03-11T02:28:14.887Z,21.83
2019-03-11T02:29:14.886Z,21.85
2019-03-11T02:30:14.867Z,21.89
2019-03-11T02:31:14.857Z,21.96
2019-03-11T02:32:14.991Z,21.85
2019-03-11T02:33:14.836Z,21.89
2019-03-11T02:34:14.859Z,21.88
2019-03-11T02:35:15.340Z,21.81
2019-03-11T02:36:14.855Z,21.81
2019-03-11T02:37:15.347Z,21.83
2019-03-11T02:38:14.975Z,21.85
2019-03-11T02:39:14.830Z,21.96
2019-03-11T02:40:14.787Z,21.81
2019-03-11T02:41:14.758Z,21.88
2019-03-11T02:42:14.750Z,21.80
2019-03-11T02:43:14.743Z,21.84
2019-03-11T02:44:14.882Z,21.84
2019-03-11T02:45:14.708Z,21.81
2019-03-11T02:46:14.716Z,21.81
2019-03-11T02:47:14.694Z,21.85
2019-03-11T02:48:14.685Z,21.80
2019-03-11T02:49:14.668Z,21.84
2019-03-11T02:50:14.793Z,21.94
2019-03-11T02:51:14.669Z,21.92
2019-03-11T02:52:14.657Z,21.92
2019-03-11T02:53:14.625Z,21.91
2019-03-11T02:54:14.625Z,21.85
2019-03-11T02:55:14.646Z,21.96
2019-03-11T02:56:14.982Z,21.81
2019-03-11T02:57:14.603Z,21.84
2019-03-11T02:58:15.302Z,21.85
2019-03-11T02:59:14.563Z,21.84
2019-03-11T03:00:14.603Z,21.81
2019-03-11T03:01:15.052Z,21.84
2019-03-11T03:02:14.703Z,21.85
2019-03-11T03:03:14.542Z,21.91
2019-03-11T03:04:14.546Z,21.89
2019-03-11T03:05:15.351Z,21.81
2019-03-11T03:06:15.385Z,21.83
2019-03-11T03:07:14.498Z,21.85
2019-03-11T03:08:14.655Z,21.85
2019-03-11T03:09:14.468Z,21.88
2019-03-11T03:10:14.472Z,21.80
2019-03-11T03:11:14.433Z,21.81
2019-03-11T03:12:15.346Z,21.83
2019-03-11T03:13:14.405Z,21.88
2019-03-11T03:14:14.518Z,21.81
2019-03-11T03:15:14.417Z,21.81
2019-03-11T03:16:14.375Z,21.85
2019-03-11T03:17:14.390Z,21.89
2019-03-11T03:18:14.351Z,21.85
2019-03-11T03:19:14.346Z,21.83
2019-03-11T03:20:14.452Z,21.77
2019-03-11T03:21:14.333Z,21.89
2019-03-11T03:22:14.311Z,21.83
2019-03-11T03:23:14.301Z,21.83
2019-03-11T03:24:14.291Z,21.81
2019-03-11T03:25:14.289Z,21.78
2019-03-11T03:26:14.463Z,21.78
2019-03-11T03:27:14.260Z,21.80
2019-03-11T03:28:14.263Z,21.84
2019-03-11T03:29:14.230Z,21.80
2019-03-11T03:30:14.246Z,21.80
2019-03-11T03:31:14.218Z,21.72
2019-03-11T03:32:14.312Z,21.83
2019-03-11T03:33:14.201Z,21.84
2019-03-11T03:34:14.178Z,21.81
2019-03-11T03:35:14.169Z,21.77
2019-03-11T03:36:14.179Z,21.80
2019-03-11T03:37:14.150Z,21.70
2019-03-11T03:38:29.036Z,21.77
2019-03-11T03:39:15.122Z,21.77
2019-03-11T03:40:14.117Z,21.75
2019-03-11T03:41:14.103Z,21.66
2019-03-11T03:42:14.110Z,21.77
2019-03-11T03:43:14.098Z,21.74
2019-03-11T03:44:14.187Z,21.84
2019-03-11T03:45:14.061Z,21.80
2019-03-11T03:46:19.116Z,21.78
2019-03-11T03:47:15.040Z,21.77
2019-03-11T03:48:14.120Z,21.78
2019-03-11T03:49:14.029Z,21.81
2019-03-11T03:50:14.123Z,21.78
2019-03-11T03:51:14.017Z,21.78
2019-03-11T03:52:13.985Z,21.83
2019-03-11T03:53:13.988Z,21.81
2019-03-11T03:54:13.963Z,21.74
2019-03-11T03:55:13.951Z,21.77
2019-03-11T03:56:14.116Z,21.78
2019-03-11T03:57:14.836Z,21.80
2019-03-11T03:58:13.933Z,21.75
2019-03-11T03:59:13.919Z,21.74
2019-03-11T04:00:13.902Z,21.77
2019-03-11T04:01:13.887Z,21.72
2019-03-11T04:02:13.983Z,21.83
2019-03-11T04:03:13.873Z,21.84
2019-03-11T04:04:13.864Z,21.83
2019-03-11T04:05:13.844Z,21.70
2019-03-11T04:06:13.835Z,21.74
2019-03-11T04:07:13.826Z,21.69
2019-03-11T04:08:13.914Z,21.80
2019-03-11T04:09:13.804Z,21.77
2019-03-11T04:10:13.796Z,21.78
2019-03-11T04:11:13.779Z,21.77
2019-03-11T04:12:13.771Z,21.74
2019-03-11T04:13:13.761Z,21.75
2019-03-11T04:14:13.870Z,21.80
2019-03-11T04:15:13.764Z,21.78
2019-03-11T04:16:13.725Z,21.84
2019-03-11T04:17:13.732Z,21.81
2019-03-11T04:18:13.710Z,21.77
2019-03-11T04:19:13.694Z,21.80
2019-03-11T04:20:13.788Z,21.80
2019-03-11T04:21:13.675Z,21.75
2019-03-11T04:22:13.691Z,21.80
2019-03-11T04:23:13.659Z,21.85
2019-03-11T04:24:13.662Z,21.78
2019-03-11T04:25:13.632Z,21.83
2019-03-11T04:26:13.728Z,21.78
2019-03-11T04:27:13.654Z,21.80
2019-03-11T04:28:13.683Z,21.80
2019-03-11T04:29:13.586Z,21.85
2019-03-11T04:30:13.575Z,21.75
2019-03-11T04:31:13.565Z,21.77
2019-03-11T04:32:13.765Z,21.81
2019-03-11T04:33:13.546Z,21.77
2019-03-11T04:34:13.537Z,21.81
2019-03-11T04:35:13.524Z,21.80
2019-03-11T04:36:13.512Z,21.89
2019-03-11T04:37:13.504Z,21.80
2019-03-11T04:38:13.696Z,21.74
2019-03-11T04:39:13.485Z,21.89
2019-03-11T04:40:13.472Z,21.88
2019-03-11T04:41:13.465Z,21.89
2019-03-11T04:42:13.453Z,21.81
2019-03-11T04:43:13.441Z,21.80
2019-03-11T04:44:13.558Z,21.81
2019-03-11T04:45:13.421Z,21.78
2019-03-11T04:46:13.405Z,21.81
2019-03-11T04:47:13.394Z,21.84
2019-03-11T04:48:13.389Z,21.88
2019-03-11T04:49:13.379Z,21.94
2019-03-11T04:50:13.536Z,21.85
2019-03-11T04:51:13.354Z,21.96
2019-03-11T04:52:13.356Z,21.94
2019-03-11T04:53:13.370Z,21.94
2019-03-11T04:54:13.319Z,21.94
2019-03-11T04:55:13.308Z,21.94
2019-03-11T04:56:13.597Z,21.88
2019-03-11T04:57:13.287Z,21.91
2019-03-11T04:58:13.277Z,21.92
2019-03-11T04:59:13.267Z,21.96
2019-03-11T05:00:13.256Z,21.96
2019-03-11T05:01:13.247Z,21.96
2019-03-11T05:02:13.339Z,21.92
2019-03-11T05:03:13.226Z,21.96
2019-03-11T05:04:13.214Z,21.99
2019-03-11T05:05:13.216Z,22.00
2019-03-11T05:06:13.213Z,21.96
2019-03-11T05:07:13.185Z,21.91
2019-03-11T05:08:13.476Z,22.07
2019-03-11T05:09:13.170Z,22.12
2019-03-11T05:10:15.954Z,22.06
2019-03-11T05:11:13.156Z,22.07
2019-03-11T05:12:13.133Z,22.03
2019-03-11T05:13:13.120Z,22.14
2019-03-11T05:14:13.240Z,22.18
2019-03-11T05:15:13.171Z,22.16
2019-03-11T05:16:13.091Z,22.08
2019-03-11T05:17:13.082Z,22.08
2019-03-11T05:18:13.064Z,22.21
2019-03-11T05:19:13.052Z,22.25
2019-03-11T05:20:13.137Z,22.28
2019-03-11T05:21:13.033Z,22.22
2019-03-11T05:22:13.031Z,22.21
2019-03-11T05:23:13.009Z,22.18
2019-03-11T05:24:12.996Z,22.23
2019-03-11T05:25:12.989Z,22.31
2019-03-11T05:26:13.109Z,22.28
2019-03-11T05:27:12.966Z,22.25
2019-03-11T05:28:12.964Z,22.30
2019-03-11T05:29:12.973Z,22.22
2019-03-11T05:30:12.936Z,22.30
2019-03-11T05:31:12.928Z,22.30
2019-03-11T05:32:13.033Z,22.25
2019-03-11T05:33:12.918Z,22.36
2019-03-11T05:34:12.892Z,22.34
2019-03-11T05:35:12.888Z,22.34
2019-03-11T05:36:12.874Z,22.36
2019-03-11T05:37:12.863Z,22.37
2019-03-11T05:38:13.152Z,22.38
2019-03-11T05:39:12.841Z,22.40
2019-03-11T05:40:12.850Z,22.38
2019-03-11T05:41:12.827Z,22.38
2019-03-11T05:42:12.833Z,22.38
2019-03-11T05:43:12.795Z,22.43
2019-03-11T05:44:12.900Z,22.40
2019-03-11T05:45:12.776Z,22.43
2019-03-11T05:46:12.760Z,22.43
2019-03-11T05:47:12.752Z,22.43
2019-03-11T05:48:12.742Z,22.47
2019-03-11T05:49:12.729Z,22.46
2019-03-11T05:50:12.827Z,22.43
2019-03-11T05:51:12.709Z,22.38
2019-03-11T05:52:12.697Z,22.51
2019-03-11T05:53:12.687Z,22.52
2019-03-11T05:54:12.686Z,22.56
2019-03-11T05:55:12.671Z,22.55
2019-03-11T05:56:12.956Z,22.52
2019-03-11T05:57:12.663Z,22.46
2019-03-11T05:58:12.640Z,22.51
2019-03-11T05:59:12.622Z,22.53
2019-03-11T06:00:12.610Z,22.55
2019-03-11T06:01:12.606Z,22.56
2019-03-11T06:02:12.735Z,22.47
2019-03-11T06:03:12.586Z,22.47
2019-03-11T06:04:12.579Z,22.43
2019-03-11T06:05:12.556Z,22.36
2019-03-11T06:06:12.546Z,22.37
2019-03-11T06:07:12.561Z,22.33
2019-03-11T06:08:12.636Z,22.30
2019-03-11T06:09:12.518Z,22.33
2019-03-11T06:10:12.512Z,22.31
2019-03-11T06:11:12.508Z,22.34
2019-03-11T06:12:12.481Z,22.37
2019-03-11T06:13:12.535Z,22.36
2019-03-11T06:14:12.638Z,22.34
2019-03-11T06:15:12.460Z,22.34
2019-03-11T06:16:12.493Z,22.38
2019-03-11T06:17:12.448Z,22.34
2019-03-11T06:18:12.425Z,22.33
2019-03-11T06:19:12.474Z,22.37
2019-03-11T06:20:12.568Z,22.33
2019-03-11T06:21:12.388Z,22.38
2019-03-11T06:22:12.386Z,22.40
2019-03-11T06:23:12.408Z,22.41
2019-03-11T06:24:12.358Z,22.44
2019-03-11T06:25:12.351Z,22.38
2019-03-11T06:26:12.431Z,22.36
2019-03-11T06:27:12.322Z,22.37
2019-03-11T06:28:12.316Z,22.38
2019-03-11T06:29:12.319Z,22.38
2019-03-11T06:30:12.296Z,22.41
2019-03-11T06:31:12.318Z,22.38
2019-03-11T06:32:12.380Z,22.37
2019-03-11T06:33:12.272Z,22.38
2019-03-11T06:34:12.261Z,22.46
2019-03-11T06:35:12.259Z,22.40
2019-03-11T06:36:12.226Z,22.40
2019-03-11T06:37:12.227Z,22.43
2019-03-11T06:38:12.415Z,22.43
2019-03-11T06:39:12.201Z,22.46
2019-03-11T06:40:12.207Z,22.41
2019-03-11T06:41:12.191Z,22.49
2019-03-11T06:42:12.162Z,22.51
2019-03-11T06:43:12.156Z,22.53
2019-03-11T06:44:12.331Z,22.55
2019-03-11T06:45:12.133Z,22.55
2019-03-11T06:46:12.124Z,22.53
2019-03-11T06:47:12.125Z,22.56
2019-03-11T06:48:12.105Z,22.56
2019-03-11T06:49:12.090Z,22.46
2019-03-11T06:50:12.305Z,22.52
2019-03-11T06:51:12.070Z,22.47
2019-03-11T06:52:12.115Z,22.61
2019-03-11T06:53:12.239Z,22.49
2019-03-11T06:54:12.053Z,22.46
2019-03-11T06:55:12.024Z,22.51
2019-03-11T06:56:12.121Z,22.58
2019-03-11T06:57:12.884Z,22.59
2019-03-11T06:58:11.992Z,22.59
2019-03-11T06:59:11.999Z,22.58
2019-03-11T07:00:11.968Z,22.59
2019-03-11T07:01:11.964Z,22.58
2019-03-11T07:02:12.165Z,22.59
2019-03-11T07:03:11.938Z,22.59
2019-03-11T07:04:11.928Z,22.62
2019-03-11T07:05:20.172Z,22.67
2019-03-11T07:06:12.908Z,22.70
2019-03-11T07:07:11.898Z,22.70
2019-03-11T07:08:11.989Z,22.67
2019-03-11T07:09:11.933Z,22.67
2019-03-11T07:10:11.897Z,22.74
2019-03-11T07:11:11.867Z,22.70
2019-03-11T07:12:11.852Z,22.67
2019-03-11T07:13:11.832Z,22.68
2019-03-11T07:14:11.924Z,22.68
2019-03-11T07:15:11.810Z,22.74
2019-03-11T07:16:11.799Z,22.76
2019-03-11T07:17:11.799Z,22.73
2019-03-11T07:18:11.777Z,22.74
2019-03-11T07:19:11.785Z,22.76
2019-03-11T07:20:12.038Z,22.71
2019-03-11T07:21:11.748Z,22.73
2019-03-11T07:22:11.738Z,22.76
2019-03-11T07:23:11.732Z,22.71
2019-03-11T07:24:11.713Z,22.73
2019-03-11T07:25:11.706Z,22.77
2019-03-11T07:26:11.832Z,22.74
2019-03-11T07:27:11.684Z,22.77
2019-03-11T07:28:12.354Z,22.76
2019-03-11T07:29:11.670Z,22.76
2019-03-11T07:30:11.645Z,22.74
2019-03-11T07:31:11.649Z,22.74
2019-03-11T07:32:11.732Z,22.68
2019-03-11T07:33:11.616Z,22.78
2019-03-11T07:34:11.612Z,22.74
2019-03-11T07:35:11.605Z,22.74
2019-03-11T07:36:11.584Z,22.73
2019-03-11T07:37:11.740Z,22.78
2019-03-11T07:38:11.748Z,22.71
2019-03-11T07:39:11.554Z,22.74
2019-03-11T07:40:11.566Z,22.73
2019-03-11T07:41:12.361Z,22.74
2019-03-11T07:42:11.518Z,22.78
2019-03-11T07:43:11.589Z,22.74
2019-03-11T07:44:11.607Z,22.78
2019-03-11T07:45:11.487Z,22.78
2019-03-11T07:46:11.493Z,22.86
2019-03-11T07:47:11.473Z,22.76
2019-03-11T07:48:11.461Z,22.74
2019-03-11T07:49:11.451Z,22.84
2019-03-11T07:50:11.556Z,22.91
2019-03-11T07:51:11.426Z,22.80
2019-03-11T07:52:11.408Z,22.83
2019-03-11T07:53:11.403Z,22.77
2019-03-11T07:54:11.384Z,22.77
2019-03-11T07:55:11.429Z,22.80
2019-03-11T07:56:11.667Z,22.84
2019-03-11T07:57:11.403Z,22.88
2019-03-11T07:58:11.346Z,22.80
2019-03-11T07:59:11.344Z,22.81
2019-03-11T08:00:11.322Z,22.86
2019-03-11T08:01:11.316Z,22.78
2019-03-11T08:02:11.464Z,22.86
2019-03-11T08:03:11.293Z,22.89
2019-03-11T08:04:11.290Z,22.84
2019-03-11T08:05:11.287Z,22.88
2019-03-11T08:06:18.661Z,22.93
2019-03-11T08:07:12.362Z,22.92
2019-03-11T08:08:11.297Z,22.92
2019-03-11T08:09:11.236Z,22.95
2019-03-11T08:10:11.218Z,22.86
2019-03-11T08:11:11.215Z,22.89
2019-03-11T08:12:11.191Z,22.92
2019-03-11T08:13:11.282Z,22.92
2019-03-11T08:14:11.169Z,22.86
2019-03-11T08:15:11.161Z,22.86
2019-03-11T08:16:11.161Z,22.95
2019-03-11T08:17:11.181Z,22.88
2019-03-11T08:18:11.129Z,22.95
2019-03-11T08:19:11.244Z,22.95
2019-03-11T08:20:11.107Z,22.95
2019-03-11T08:21:11.120Z,22.95
2019-03-11T08:22:11.098Z,22.88
2019-03-11T08:23:11.080Z,22.91
2019-03-11T08:24:11.064Z,22.95
2019-03-11T08:25:11.160Z,22.96
2019-03-11T08:26:11.041Z,22.86
2019-03-11T08:27:11.035Z,22.86
2019-03-11T08:28:11.037Z,22.86
2019-03-11T08:29:11.019Z,22.84
2019-03-11T08:30:11.018Z,22.86
2019-03-11T08:31:11.112Z,22.93
2019-03-11T08:32:10.985Z,22.92
2019-03-11T08:33:10.975Z,22.99
2019-03-11T08:34:10.977Z,22.93
2019-03-11T08:35:10.965Z,22.96
2019-03-11T08:36:10.936Z,22.98
2019-03-11T08:37:11.266Z,22.99
2019-03-11T08:38:10.907Z,23.01
2019-03-11T08:39:10.915Z,22.99
2019-03-11T08:40:10.895Z,23.04
2019-03-11T08:41:10.889Z,23.08
2019-03-11T08:42:10.863Z,23.13
2019-03-11T08:43:10.956Z,23.08
2019-03-11T08:44:10.843Z,23.02
2019-03-11T08:45:10.840Z,23.10
2019-03-11T08:46:10.833Z,23.11
2019-03-11T08:47:10.817Z,23.13
2019-03-11T08:48:10.805Z,23.14
2019-03-11T08:49:10.944Z,23.16
2019-03-11T08:50:10.797Z,23.14
2019-03-11T08:51:10.788Z,23.10
2019-03-11T08:52:10.762Z,23.13
2019-03-11T08:53:10.755Z,23.21
2019-03-11T08:54:10.909Z,23.28
2019-03-11T08:55:10.870Z,23.17
2019-03-11T08:56:10.730Z,23.14
2019-03-11T08:57:10.706Z,23.13
2019-03-11T08:58:10.702Z,23.11
2019-03-11T08:59:10.695Z,23.17
2019-03-11T09:00:10.683Z,23.26
2019-03-11T09:01:10.963Z,23.17
2019-03-11T09:02:10.653Z,23.23
2019-03-11T09:03:10.643Z,23.28
2019-03-11T09:04:10.631Z,23.21
2019-03-11T09:05:10.636Z,23.16
2019-03-11T09:06:10.614Z,23.21
2019-03-11T09:07:10.751Z,23.21
2019-03-11T09:08:10.587Z,23.21
2019-03-11T09:09:10.575Z,23.16
2019-03-11T09:10:10.576Z,23.21
2019-03-11T09:11:10.567Z,23.23
2019-03-11T09:12:10.549Z,23.23
2019-03-11T09:13:10.634Z,23.20
2019-03-11T09:14:10.519Z,23.25
2019-03-11T09:15:10.536Z,23.28
2019-03-11T09:16:10.519Z,23.32
2019-03-11T09:17:10.502Z,23.32
2019-03-11T09:18:10.482Z,23.21
2019-03-11T09:19:10.636Z,23.33
2019-03-11T09:20:10.459Z,23.34
2019-03-11T09:21:10.445Z,23.32
2019-03-11T09:22:10.438Z,23.32
2019-03-11T09:23:10.465Z,23.29
2019-03-11T09:24:18.817Z,23.26
2019-03-11T09:25:11.497Z,23.28
2019-03-11T09:26:10.402Z,23.33
2019-03-11T09:27:10.388Z,23.29
2019-03-11T09:28:10.371Z,23.33
2019-03-11T09:29:10.359Z,23.29
2019-03-11T09:30:10.367Z,23.34
2019-03-11T09:31:10.433Z,23.36
2019-03-11T09:32:10.322Z,23.33
2019-03-11T09:33:10.320Z,23.32
2019-03-11T09:34:10.301Z,23.34
2019-03-11T09:35:10.297Z,23.37
2019-03-11T09:36:10.303Z,23.33
2019-03-11T09:37:10.558Z,23.32
2019-03-11T09:38:10.261Z,23.40
2019-03-11T09:39:10.248Z,23.36
2019-03-11T09:40:10.237Z,23.39
2019-03-11T09:41:10.236Z,23.37
2019-03-11T09:42:10.214Z,23.34
2019-03-11T09:43:10.343Z,23.33
2019-03-11T09:44:10.197Z,23.33
2019-03-11T09:45:10.180Z,23.33
2019-03-11T09:46:10.171Z,23.36
2019-03-11T09:47:10.167Z,23.39
2019-03-11T09:48:10.153Z,23.29
2019-03-11T09:49:10.248Z,23.39
2019-03-11T09:50:10.128Z,23.39
2019-03-11T09:51:10.125Z,23.32
2019-03-11T09:52:10.107Z,23.32
2019-03-11T09:53:10.105Z,23.37
2019-03-11T09:54:10.102Z,23.37
2019-03-11T09:55:10.188Z,23.34
2019-03-11T09:56:10.066Z,23.28
2019-03-11T09:57:10.062Z,23.36
2019-03-11T09:58:10.065Z,23.42
2019-03-11T09:59:10.045Z,23.39
2019-03-11T10:00:10.020Z,23.34
2019-03-11T10:01:10.197Z,23.34
2019-03-11T10:02:12.272Z,23.42
2019-03-11T10:03:09.987Z,23.39
2019-03-11T10:04:10.008Z,23.40
2019-03-11T10:05:09.971Z,23.45
2019-03-11T10:06:09.959Z,23.48
2019-03-11T10:07:10.043Z,23.49
2019-03-11T10:08:10.868Z,23.59
2019-03-11T10:09:09.924Z,23.49
2019-03-11T10:10:09.917Z,23.56
2019-03-11T10:11:09.935Z,23.54
2019-03-11T10:12:09.891Z,23.63
2019-03-11T10:13:10.008Z,23.66
2019-03-11T10:14:09.871Z,23.62
2019-03-11T10:15:09.860Z,23.67
2019-03-11T10:16:09.858Z,23.69
2019-03-11T10:17:09.850Z,23.66
2019-03-11T10:18:09.826Z,23.69
2019-03-11T10:19:10.870Z,23.74
2019-03-11T10:20:09.805Z,23.76
2019-03-11T10:21:09.793Z,23.76
2019-03-11T10:22:09.787Z,23.79
2019-03-11T10:23:09.776Z,23.88
2019-03-11T10:24:09.776Z,23.73
2019-03-11T10:25:09.862Z,23.86
2019-03-11T10:26:09.748Z,23.85
2019-03-11T10:27:09.734Z,23.92
2019-03-11T10:28:09.722Z,23.92
2019-03-11T10:29:09.713Z,23.95
2019-03-11T10:30:09.702Z,23.86
2019-03-11T10:31:09.900Z,23.88
2019-03-11T10:32:09.678Z,23.95
2019-03-11T10:33:09.669Z,23.96
2019-03-11T10:34:09.667Z,24.00
2019-03-11T10:35:30.151Z,23.89
2019-03-11T10:36:10.916Z,24.00
2019-03-11T10:37:09.624Z,23.94
2019-03-11T10:38:09.614Z,24.01
2019-03-11T10:39:09.618Z,23.95
2019-03-11T10:40:09.611Z,24.00
2019-03-11T10:41:09.583Z,23.94
2019-03-11T10:42:09.682Z,23.95
2019-03-11T10:43:09.559Z,23.91
2019-03-11T10:44:09.549Z,23.96
2019-03-11T10:45:09.537Z,23.96
2019-03-11T10:46:09.528Z,23.95
2019-03-11T10:47:09.520Z,24.01
2019-03-11T10:48:09.600Z,24.06
2019-03-11T10:49:09.497Z,24.11
2019-03-11T10:50:09.485Z,24.09
2019-03-11T10:51:09.472Z,24.09
2019-03-11T10:52:09.466Z,24.10
2019-03-11T10:53:09.464Z,24.14
2019-03-11T10:54:09.569Z,24.09
2019-03-11T10:55:09.436Z,24.14
2019-03-11T10:56:09.424Z,24.13
2019-03-11T10:57:09.409Z,24.13
2019-03-11T10:58:09.400Z,24.10
2019-03-11T10:59:09.403Z,24.11
2019-03-11T11:00:09.474Z,24.13
2019-03-11T11:01:09.904Z,24.16
2019-03-11T11:02:09.353Z,24.10
2019-03-11T11:03:09.344Z,24.13
2019-03-11T11:04:09.333Z,24.07
2019-03-11T11:05:09.331Z,24.19
2019-03-11T11:06:09.414Z,24.24
2019-03-11T11:07:09.301Z,24.14
2019-03-11T11:08:09.302Z,24.04
2019-03-11T11:09:09.280Z,24.10
2019-03-11T11:10:09.277Z,24.11
2019-03-11T11:11:09.264Z,24.19
2019-03-11T11:12:09.364Z,24.16
2019-03-11T11:13:09.236Z,24.11
2019-03-11T11:14:09.228Z,24.21
2019-03-11T11:15:09.215Z,24.22
2019-03-11T11:16:09.204Z,24.24
2019-03-11T11:17:09.195Z,24.24
2019-03-11T11:18:09.283Z,24.31
2019-03-11T11:19:09.171Z,24.26
2019-03-11T11:20:09.169Z,24.22
2019-03-11T11:21:09.162Z,24.22
2019-03-11T11:22:09.142Z,24.13
2019-03-11T11:23:09.137Z,24.13
2019-03-11T11:24:09.211Z,24.13
2019-03-11T11:25:09.106Z,24.07
2019-03-11T11:26:09.865Z,24.14
2019-03-11T11:27:09.093Z,24.14
2019-03-11T11:28:09.072Z,24.14
2019-03-11T11:29:09.063Z,24.11
2019-03-11T11:30:09.468Z,24.19
2019-03-11T11:31:09.042Z,24.14
2019-03-11T11:32:09.033Z,24.14
2019-03-11T11:33:09.022Z,24.10
2019-03-11T11:34:09.007Z,24.09
2019-03-11T11:35:09.000Z,24.09
2019-03-11T11:36:09.080Z,24.11
2019-03-11T11:37:08.980Z,24.11
2019-03-11T11:38:08.982Z,24.10
2019-03-11T11:39:08.958Z,24.14
2019-03-11T11:40:08.943Z,24.26
2019-03-11T11:41:08.935Z,24.22
2019-03-11T11:42:09.195Z,24.28
2019-03-11T11:43:08.918Z,24.29
2019-03-11T11:44:08.902Z,24.29
2019-03-11T11:45:08.888Z,24.34
2019-03-11T11:46:08.878Z,24.41
2019-03-11T11:47:08.868Z,24.44
2019-03-11T11:48:08.960Z,24.47
2019-03-11T11:49:08.849Z,24.43
2019-03-11T11:50:08.835Z,24.46
2019-03-11T11:51:08.823Z,24.51
2019-03-11T11:52:08.814Z,24.50
2019-03-11T11:53:08.799Z,24.51
2019-03-11T11:54:08.900Z,24.50
2019-03-11T11:55:08.779Z,24.51
2019-03-11T11:56:08.769Z,24.62
2019-03-11T11:57:08.758Z,24.56
2019-03-11T11:58:08.750Z,24.55
2019-03-11T11:59:08.739Z,24.55
2019-03-11T12:00:08.910Z,24.58
2019-03-11T12:01:08.724Z,24.63
2019-03-11T12:02:08.707Z,24.62
2019-03-11T12:03:08.704Z,24.68
2019-03-11T12:04:08.695Z,24.74
2019-03-11T12:05:08.672Z,24.71
2019-03-11T12:06:08.829Z,24.74
2019-03-11T12:07:08.650Z,24.77
2019-03-11T12:08:08.640Z,24.79
2019-03-11T12:09:08.629Z,24.81
2019-03-11T12:10:08.620Z,24.77
2019-03-11T12:11:08.615Z,24.78
2019-03-11T12:12:08.710Z,24.75
2019-03-11T12:13:08.585Z,24.75
2019-03-11T12:14:08.588Z,24.77
2019-03-11T12:15:08.571Z,24.75
2019-03-11T12:16:08.552Z,24.86
2019-03-11T12:17:08.544Z,24.75
2019-03-11T12:18:08.642Z,24.86
2019-03-11T12:19:08.523Z,24.81
2019-03-11T12:20:08.511Z,24.92
2019-03-11T12:21:08.503Z,24.85
2019-03-11T12:22:08.489Z,24.92
2019-03-11T12:23:08.479Z,24.88
2019-03-11T12:24:08.631Z,24.93
2019-03-11T12:25:08.457Z,24.96
2019-03-11T12:26:08.445Z,25.00
2019-03-11T12:27:08.435Z,24.99
2019-03-11T12:28:08.432Z,24.92
2019-03-11T12:29:08.414Z,24.99
2019-03-11T12:30:08.517Z,24.97
2019-03-11T12:31:08.392Z,25.03
2019-03-11T12:32:08.410Z,25.07
2019-03-11T12:33:08.370Z,25.07
2019-03-11T12:34:08.377Z,25.09
2019-03-11T12:35:08.352Z,25.19
2019-03-11T12:36:08.448Z,25.21
2019-03-11T12:37:08.359Z,25.18
2019-03-11T12:38:08.317Z,25.18
2019-03-11T12:39:08.337Z,25.25
2019-03-11T12:40:08.312Z,25.22
2019-03-11T12:41:08.285Z,25.24
2019-03-11T12:42:08.622Z,25.25
2019-03-11T12:43:08.271Z,25.25
2019-03-11T12:44:08.260Z,25.24
2019-03-11T12:45:08.244Z,25.33
2019-03-11T12:46:08.345Z,25.31
2019-03-11T12:47:08.219Z,25.33
2019-03-11T12:48:08.414Z,25.33
2019-03-11T12:49:08.196Z,25.30
2019-03-11T12:50:08.209Z,25.22
2019-03-11T12:51:08.228Z,25.29
2019-03-11T12:52:08.169Z,25.21